Vlissingen, Netherlands

3:56 PM CET on December 11, 2016 (GMT +0100)
Energieweg | | Change Station

Elev -6 ft 51.46 °N, 3.59 °E | Updated 5 minutes ago

Mostly Cloudy
Mostly Cloudy
48.2 °F
Feels Like 48 °F
N
0.6
Wind Variable Wind from SE
Gusts 2.5 mph

Today
High -- | Low -- °F
--% Chance of Precip.
Yesterday
High -- | Low -- °F
Precip. -- in
Pressure 30.21 in
Visibility 6.2 miles
Clouds Few 800 ft
Scattered Clouds 3600 ft
Overcast 5000 ft
Windchill 48 °F
Dew Point 43 °F
Humidity 83%
Rainfall 0.06 in
Snow Depth Not available.
8:41 AM 4:36 PM
Waxing Gibbous, 92% visible
SPECI EHWO 111434Z AUTO 26013KT 210V290 9999 FEW008 SCT036 OVC050 09/07 Q1023 BLU
Pressure 30.21 in
Visibility 6.2 miles
Clouds Few 800 ft
Scattered Clouds 3600 ft
Overcast 5000 ft
Windchill 48 °F
Dew Point 43 °F
Humidity 83%
Rainfall 0.06 in
Snow Depth Not available.
8:41 AM 4:36 PM
Waxing Gibbous, 92% visible
SPECI EHWO 111434Z AUTO 26013KT 210V290 9999 FEW008 SCT036 OVC050 09/07 Q1023 BLU

10-Day Weather Forecast

×

Almanac

Astronomy

Dec. 11, 2016 Rise Set
Actual Time
Civil Twilight
Nautical Twilight
Astronomical Twilight
Moon
Length of Visible Light
Length of Day
Tomorrow will be .
, % of the Moon is Illuminated

Today's Extremes

Country Highs Country Lows

Community

WunderPhotos

Upload Photos

1,956,719 photos uploaded!

WunderBlog® & News

Nearby

Air Quality

  Air Quality AQ Index Pollutant
Not available.

Snow Depth

Station Depth Elevation

Earthquake Activity

City Distance Mag. Time & Date
Minimum magnitude displayed is 2.5.

Coastal Water Temperatures

Place Temperature

Stations

Nearby Weather Stations

Station Location Temp. Windchill Dew Point Humidity Wind Precip. Elev Updated Type